createdAt,value
2022-08-28T00:02:21.837Z,8.40
2022-08-28T00:05:28.833Z,8.50
2022-08-28T00:08:32.136Z,8.50
2022-08-28T00:11:37.870Z,10.40
2022-08-28T00:14:41.049Z,10.10
2022-08-28T00:17:45.357Z,8.50
2022-08-28T00:20:49.961Z,8.10
2022-08-28T00:23:53.853Z,8.20
2022-08-28T00:27:15.610Z,9.40
2022-08-28T00:30:30.192Z,10.50
2022-08-28T00:33:34.909Z,9.10
2022-08-28T00:36:38.970Z,8.80
2022-08-28T00:39:41.972Z,8.60
2022-08-28T00:42:49.449Z,9.70
2022-08-28T00:46:24.922Z,11.10
2022-08-28T00:49:31.628Z,9.60
2022-08-28T00:52:35.817Z,8.20
2022-08-28T00:55:38.816Z,9.40
2022-08-28T00:58:45.225Z,10.20
2022-08-28T01:01:50.556Z,11.60
2022-08-28T01:05:22.598Z,10.20
2022-08-28T01:08:26.007Z,8.70
2022-08-28T01:11:35.558Z,9.50
2022-08-28T01:14:41.048Z,11.00
2022-08-28T01:17:51.742Z,11.50
2022-08-28T01:21:28.375Z,10.60
2022-08-28T01:24:32.983Z,9.10
2022-08-28T01:27:36.530Z,10.10
2022-08-28T01:30:45.776Z,11.60
2022-08-28T01:33:49.035Z,12.60
2022-08-28T01:36:52.356Z,10.80
2022-08-28T01:39:55.926Z,9.60
2022-08-28T01:43:12.072Z,10.70
2022-08-28T01:46:15.173Z,10.80
2022-08-28T01:49:19.486Z,12.10
2022-08-28T01:52:26.531Z,10.50
2022-08-28T01:55:29.832Z,9.40
2022-08-28T01:58:37.894Z,10.40
2022-08-28T02:01:43.415Z,10.70
2022-08-28T02:04:48.322Z,12.20
2022-08-28T02:07:52.751Z,11.20
2022-08-28T02:10:59.231Z,9.30
2022-08-28T02:14:02.918Z,9.60
2022-08-28T02:17:06.504Z,10.40
2022-08-28T02:20:10.312Z,11.60
2022-08-28T02:23:16.288Z,10.10
2022-08-28T02:26:19.922Z,9.40
2022-08-28T02:29:23.921Z,11.20
2022-08-28T02:32:27.607Z,10.90
2022-08-28T02:35:31.495Z,10.90
2022-08-28T02:38:35.085Z,10.10
2022-08-28T02:41:38.074Z,10.70
2022-08-28T02:44:42.466Z,11.10
2022-08-28T02:47:46.715Z,11.30
2022-08-28T02:50:50.248Z,10.40
2022-08-28T02:53:53.220Z,9.40
2022-08-28T02:56:56.197Z,9.70
2022-08-28T03:00:02.233Z,10.80
2022-08-28T03:03:05.726Z,9.80
2022-08-28T03:06:12.398Z,9.40
2022-08-28T03:09:15.653Z,9.90
2022-08-28T03:12:24.261Z,10.40
2022-08-28T03:15:27.750Z,9.60
2022-08-28T03:18:33.333Z,8.30
2022-08-28T03:21:36.291Z,8.70
2022-08-28T03:24:39.442Z,9.60
2022-08-28T03:27:42.516Z,11.10
2022-08-28T03:30:45.806Z,9.40
2022-08-28T03:33:49.995Z,8.30
2022-08-28T03:36:53.276Z,8.40
2022-08-28T03:39:56.283Z,9.00
2022-08-28T03:42:59.527Z,10.70
2022-08-28T03:46:04.405Z,8.60
2022-08-28T03:49:07.516Z,7.80
2022-08-28T03:52:10.486Z,8.30
2022-08-28T03:55:13.774Z,8.60
2022-08-28T03:58:19.070Z,9.40
2022-08-28T04:01:22.515Z,8.30
2022-08-28T04:04:25.822Z,7.60
2022-08-28T04:07:29.649Z,7.70
2022-08-28T04:10:33.558Z,9.10
2022-08-28T04:13:36.775Z,8.80
2022-08-28T04:16:39.843Z,7.80
2022-08-28T04:19:45.079Z,7.30
2022-08-28T04:23:14.304Z,7.10
2022-08-28T04:26:30.401Z,8.20
2022-08-28T04:29:33.392Z,8.20
2022-08-28T04:33:06.657Z,6.50
2022-08-28T04:36:13.018Z,6.50
2022-08-28T04:39:15.978Z,5.80
2022-08-28T04:42:19.772Z,6.00
2022-08-28T04:45:23.201Z,6.90
2022-08-28T04:48:26.641Z,5.60
2022-08-28T04:51:33.505Z,5.00
2022-08-28T04:54:36.700Z,4.80
2022-08-28T04:57:39.918Z,4.60
2022-08-28T05:00:45.538Z,4.60
2022-08-28T05:03:52.754Z,4.40
2022-08-28T05:06:55.828Z,4.40
2022-08-28T05:09:59.004Z,3.60
2022-08-28T05:13:02.388Z,4.60
2022-08-28T05:16:05.820Z,4.00
2022-08-28T05:19:09.965Z,3.60
2022-08-28T05:22:12.836Z,3.10
2022-08-28T05:25:16.325Z,2.90
2022-08-28T05:28:19.908Z,3.20
2022-08-28T05:31:24.687Z,3.20
2022-08-28T05:34:28.310Z,2.80
2022-08-28T05:37:31.281Z,2.20
2022-08-28T05:40:34.952Z,2.60
2022-08-28T05:43:38.672Z,2.70
2022-08-28T05:46:44.627Z,3.00
2022-08-28T05:49:47.670Z,2.10
2022-08-28T05:52:54.139Z,2.00
2022-08-28T05:55:57.200Z,2.40
2022-08-28T05:59:02.115Z,2.70
2022-08-28T06:06:39.529Z,1.50
2022-08-28T06:09:43.808Z,1.50
2022-08-28T06:12:47.124Z,1.70
2022-08-28T06:15:50.232Z,2.20
2022-08-28T06:19:17.264Z,2.60
2022-08-28T06:22:20.910Z,1.90
2022-08-28T06:25:24.085Z,2.10
2022-08-28T06:28:29.282Z,2.20
2022-08-28T06:31:34.045Z,3.00
2022-08-28T06:34:37.311Z,2.50
2022-08-28T06:37:40.483Z,2.60
2022-08-28T06:40:47.445Z,2.10
2022-08-28T06:43:50.821Z,2.60
2022-08-28T06:46:55.432Z,3.10
2022-08-28T06:49:58.614Z,2.90
2022-08-28T06:53:32.182Z,2.40
2022-08-28T06:56:36.280Z,2.50
2022-08-28T06:59:39.353Z,2.20
2022-08-28T07:02:42.461Z,3.40
2022-08-28T07:05:46.840Z,3.50
2022-08-28T07:08:51.353Z,2.90
2022-08-28T07:11:54.516Z,2.30
2022-08-28T07:14:57.896Z,2.60
2022-08-28T07:18:01.278Z,3.00
2022-08-28T07:21:06.344Z,3.50
2022-08-28T07:24:14.849Z,3.50
2022-08-28T07:27:19.306Z,3.00
2022-08-28T07:30:22.581Z,2.90
2022-08-28T07:33:28.207Z,2.90
2022-08-28T07:36:31.372Z,3.20
2022-08-28T07:39:35.491Z,4.10
2022-08-28T07:42:58.014Z,4.40
2022-08-28T07:46:04.276Z,3.40
2022-08-28T07:49:09.020Z,3.80
2022-08-28T07:52:13.272Z,3.60
2022-08-28T07:55:16.856Z,3.20
2022-08-28T07:58:20.953Z,4.50
2022-08-28T08:01:24.998Z,4.60
2022-08-28T08:04:28.538Z,3.90
2022-08-28T08:07:33.482Z,3.70
2022-08-28T08:10:36.834Z,3.90
2022-08-28T08:13:41.236Z,4.60
2022-08-28T08:16:46.958Z,5.30
2022-08-28T08:19:49.944Z,5.20
2022-08-28T08:22:56.052Z,4.70
2022-08-28T08:26:02.772Z,4.30
2022-08-28T08:29:05.871Z,4.20
2022-08-28T08:32:11.515Z,4.60
2022-08-28T08:35:14.531Z,4.60
2022-08-28T08:38:17.606Z,4.10
2022-08-28T08:41:36.599Z,6.20
2022-08-28T08:44:43.643Z,5.10
2022-08-28T08:47:52.820Z,5.00
2022-08-28T08:51:07.839Z,4.90
2022-08-28T08:54:19.344Z,5.10
2022-08-28T08:57:23.562Z,5.30
2022-08-28T09:00:40.467Z,5.50
2022-08-28T09:03:56.498Z,4.80
2022-08-28T09:07:08.569Z,4.90
2022-08-28T09:10:18.648Z,6.80
2022-08-28T09:13:30.696Z,6.00
2022-08-28T09:16:45.781Z,6.70
2022-08-28T09:19:56.630Z,5.90
2022-08-28T09:26:25.488Z,5.60
2022-08-28T09:29:39.962Z,6.10
2022-08-28T09:33:03.798Z,5.20
2022-08-28T09:36:34.384Z,5.90
2022-08-28T09:39:40.947Z,5.60
2022-08-28T09:43:21.220Z,5.20
2022-08-28T09:46:32.757Z,5.40
2022-08-28T09:49:36.259Z,5.20
2022-08-28T09:52:39.750Z,4.70
2022-08-28T09:56:12.336Z,4.30
2022-08-28T09:59:22.643Z,4.50
2022-08-28T10:02:40.857Z,5.10
2022-08-28T10:05:59.089Z,4.80
2022-08-28T10:09:32.239Z,5.00
2022-08-28T10:12:40.943Z,4.80
2022-08-28T10:15:44.183Z,6.10
2022-08-28T10:19:32.176Z,5.40
2022-08-28T10:23:17.432Z,6.40
2022-08-28T10:26:43.158Z,6.50
2022-08-28T10:30:13.684Z,7.30
2022-08-28T10:33:58.168Z,5.40
2022-08-28T10:37:54.657Z,5.70
2022-08-28T10:41:17.382Z,5.50
2022-08-28T10:44:29.480Z,5.90
2022-08-28T10:47:37.204Z,6.00
2022-08-28T10:50:45.504Z,5.20
2022-08-28T11:00:16.274Z,5.00
2022-08-28T11:03:34.496Z,5.00
2022-08-28T11:06:45.128Z,5.50
2022-08-28T11:09:49.411Z,4.80
2022-08-28T11:12:53.323Z,4.20
2022-08-28T11:15:56.505Z,4.90
2022-08-28T11:19:15.129Z,4.90
2022-08-28T11:22:55.505Z,3.90
2022-08-28T11:26:06.310Z,4.80
2022-08-28T11:29:09.495Z,4.60
2022-08-28T11:32:31.386Z,5.70
2022-08-28T11:35:40.908Z,5.00
2022-08-28T11:38:43.878Z,5.30
2022-08-28T11:42:13.626Z,4.70
2022-08-28T11:45:41.315Z,4.30
2022-08-28T11:48:52.525Z,4.20
2022-08-28T11:52:03.109Z,4.10
2022-08-28T11:55:31.256Z,3.30
2022-08-28T11:58:52.135Z,3.50
2022-08-28T12:01:56.374Z,3.40
2022-08-28T12:04:59.622Z,3.00
2022-08-28T12:08:04.998Z,3.40
2022-08-28T12:11:08.636Z,3.10
2022-08-28T12:14:27.593Z,4.00
2022-08-28T12:17:47.197Z,3.80
2022-08-28T12:20:55.006Z,3.80
2022-08-28T12:24:05.343Z,4.60
2022-08-28T12:27:13.883Z,4.20
2022-08-28T12:30:34.373Z,4.60
2022-08-28T12:34:06.145Z,4.30
2022-08-28T12:37:52.520Z,4.00
2022-08-28T12:40:56.916Z,4.70
2022-08-28T12:44:00.699Z,4.20
2022-08-28T12:47:03.922Z,4.80
2022-08-28T12:50:29.531Z,3.90
2022-08-28T12:53:51.982Z,4.00
2022-08-28T12:56:54.955Z,4.30
2022-08-28T13:00:09.471Z,3.30
2022-08-28T13:03:12.576Z,3.50
2022-08-28T13:06:28.875Z,3.40
2022-08-28T13:09:32.536Z,3.20
2022-08-28T13:12:55.302Z,3.70
2022-08-28T13:16:03.064Z,3.60
2022-08-28T13:19:06.726Z,3.50
2022-08-28T13:22:34.972Z,3.00
2022-08-28T13:25:38.566Z,3.20
2022-08-28T13:28:43.970Z,2.90
2022-08-28T13:32:06.925Z,3.60
2022-08-28T13:35:22.918Z,2.90
2022-08-28T13:38:26.704Z,2.70
2022-08-28T13:41:30.105Z,3.20
2022-08-28T13:44:46.128Z,3.80
2022-08-28T13:47:49.103Z,4.40
2022-08-28T13:51:20.706Z,2.70
2022-08-28T13:54:25.233Z,3.00
2022-08-28T13:57:30.867Z,2.70
2022-08-28T14:00:40.723Z,2.70
2022-08-28T14:03:43.772Z,3.10
2022-08-28T14:06:46.743Z,3.00
2022-08-28T14:09:54.070Z,3.30
2022-08-28T14:12:59.555Z,3.30
2022-08-28T14:16:07.786Z,2.90
2022-08-28T14:22:14.356Z,2.60
2022-08-28T14:25:17.674Z,2.50
2022-08-28T14:28:20.753Z,2.90
2022-08-28T14:31:26.314Z,3.00
2022-08-28T14:34:30.954Z,3.00
2022-08-28T14:37:34.168Z,4.10
2022-08-28T14:40:38.720Z,3.40
2022-08-28T14:43:42.576Z,2.60
2022-08-28T14:46:47.433Z,2.60
2022-08-28T14:49:50.885Z,3.00
2022-08-28T14:52:53.922Z,3.10
2022-08-28T14:55:56.913Z,3.10
2022-08-28T14:59:01.217Z,2.60
2022-08-28T15:02:05.929Z,2.60
2022-08-28T15:10:04.954Z,2.40
2022-08-28T15:13:10.410Z,2.60
2022-08-28T15:16:20.138Z,2.20
2022-08-28T15:19:31.091Z,2.40
2022-08-28T15:22:34.279Z,2.90
2022-08-28T15:25:37.478Z,2.50
2022-08-28T15:28:40.786Z,2.50
2022-08-28T15:31:46.735Z,2.60
2022-08-28T15:34:50.223Z,2.60
2022-08-28T15:37:53.923Z,2.30
2022-08-28T15:41:15.628Z,2.40
2022-08-28T15:44:20.636Z,2.20
2022-08-28T15:47:23.525Z,2.50
2022-08-28T15:50:26.504Z,2.30
2022-08-28T15:53:30.240Z,2.20
2022-08-28T15:56:33.172Z,2.30
2022-08-28T15:59:47.830Z,2.50
2022-08-28T16:03:03.023Z,2.30
2022-08-28T16:06:21.310Z,2.30
2022-08-28T16:09:25.504Z,2.00
2022-08-28T16:12:28.801Z,2.50
2022-08-28T16:15:32.311Z,2.50
2022-08-28T16:18:35.306Z,2.50
2022-08-28T16:21:44.036Z,2.50
2022-08-28T16:25:00.871Z,2.60
2022-08-28T16:28:09.006Z,2.30
2022-08-28T16:31:19.859Z,2.30
2022-08-28T16:34:32.105Z,2.10
2022-08-28T16:37:49.390Z,2.00
2022-08-28T16:40:55.432Z,2.60
2022-08-28T16:47:08.668Z,2.10
2022-08-28T16:50:14.981Z,2.30
2022-08-28T16:53:29.361Z,2.60
2022-08-28T16:56:36.297Z,2.20
2022-08-28T16:59:39.235Z,2.10
2022-08-28T17:02:46.621Z,2.30
2022-08-28T17:05:50.432Z,2.80
2022-08-28T17:09:03.421Z,2.40
2022-08-28T17:12:14.705Z,2.00
2022-08-28T17:15:22.655Z,2.10
2022-08-28T17:18:25.844Z,3.00
2022-08-28T17:22:13.336Z,2.10
2022-08-28T17:25:16.764Z,2.50
2022-08-28T17:28:19.613Z,2.90
2022-08-28T17:31:22.525Z,2.10
2022-08-28T17:34:29.995Z,2.00
2022-08-28T17:40:37.104Z,2.30
2022-08-28T17:43:49.737Z,2.40
2022-08-28T17:46:52.928Z,2.20
2022-08-28T17:49:56.152Z,2.00
2022-08-28T17:53:29.868Z,2.50
2022-08-28T17:56:46.813Z,2.50
2022-08-28T17:59:50.311Z,2.30
2022-08-28T18:03:18.311Z,2.30
2022-08-28T18:06:22.531Z,2.60
2022-08-28T18:09:51.743Z,2.30
2022-08-28T18:12:54.836Z,2.40
2022-08-28T18:15:58.362Z,2.80
2022-08-28T18:19:02.652Z,2.50
2022-08-28T18:22:06.897Z,2.90
2022-08-28T18:25:30.392Z,2.60
2022-08-28T18:28:33.768Z,2.70
2022-08-28T18:31:37.129Z,2.30
2022-08-28T18:34:43.809Z,2.20
2022-08-28T18:37:46.988Z,2.70
2022-08-28T18:40:55.169Z,2.80
2022-08-28T18:44:24.484Z,2.50
2022-08-28T18:50:32.314Z,2.10
2022-08-28T18:53:36.515Z,2.40
2022-08-28T18:56:40.359Z,2.60
2022-08-28T19:00:06.729Z,2.60
2022-08-28T19:03:10.798Z,2.10
2022-08-28T19:06:15.592Z,2.50
2022-08-28T19:09:20.309Z,2.70
2022-08-28T19:12:52.072Z,3.10
2022-08-28T19:15:55.148Z,2.30
2022-08-28T19:18:58.500Z,2.10
2022-08-28T19:22:57.618Z,3.00
2022-08-28T19:26:27.641Z,2.40
2022-08-28T19:29:40.156Z,2.30
2022-08-28T19:33:08.963Z,2.60
2022-08-28T19:36:12.373Z,2.30
2022-08-28T19:39:15.788Z,3.00
2022-08-28T19:43:16.939Z,2.50
2022-08-28T19:47:10.831Z,2.00
2022-08-28T19:50:16.228Z,3.00
2022-08-28T19:53:20.710Z,2.80
2022-08-28T19:56:27.419Z,2.60
2022-08-28T19:59:30.745Z,2.40
2022-08-28T20:03:28.495Z,2.20
2022-08-28T20:06:39.432Z,3.10
2022-08-28T20:09:42.628Z,3.10
2022-08-28T20:12:48.212Z,2.30
2022-08-28T20:15:54.044Z,2.10
2022-08-28T20:19:24.714Z,2.90
2022-08-28T20:22:29.618Z,2.60
2022-08-28T20:25:35.792Z,2.80
2022-08-28T20:28:40.332Z,2.50
2022-08-28T20:31:48.062Z,2.10
2022-08-28T20:34:55.314Z,2.50
2022-08-28T20:38:01.017Z,2.80
2022-08-28T20:41:04.295Z,2.00
2022-08-28T20:44:13.685Z,2.00
2022-08-28T20:47:16.926Z,2.20
2022-08-28T20:50:21.556Z,2.50
2022-08-28T20:53:37.145Z,2.70
2022-08-28T20:56:42.165Z,2.30
2022-08-28T20:59:48.821Z,1.90
2022-08-28T21:02:52.666Z,2.50
2022-08-28T21:05:56.859Z,2.70
2022-08-28T21:09:01.635Z,2.00
2022-08-28T21:12:05.834Z,2.40
2022-08-28T21:15:12.670Z,2.60
2022-08-28T21:18:16.474Z,2.90
2022-08-28T21:21:20.799Z,2.80
2022-08-28T21:24:29.796Z,2.30
2022-08-28T21:27:34.615Z,2.60
2022-08-28T21:30:41.789Z,2.80
2022-08-28T21:33:48.278Z,3.20
2022-08-28T21:36:51.763Z,2.90
2022-08-28T21:39:56.800Z,2.80
2022-08-28T21:42:59.919Z,2.10
2022-08-28T21:46:05.709Z,2.60
2022-08-28T21:49:10.080Z,2.60
2022-08-28T21:52:13.217Z,2.60
2022-08-28T21:55:17.662Z,2.20
2022-08-28T21:58:22.330Z,1.90
2022-08-28T22:01:26.950Z,2.50
2022-08-28T22:04:30.593Z,3.40
2022-08-28T22:07:33.828Z,2.30
2022-08-28T22:10:40.377Z,2.70
2022-08-28T22:13:47.563Z,2.60
2022-08-28T22:16:51.187Z,3.20
2022-08-28T22:19:54.257Z,2.70
2022-08-28T22:23:14.097Z,2.80
2022-08-28T22:26:20.770Z,2.30
2022-08-28T22:29:24.144Z,3.00
2022-08-28T22:32:28.226Z,2.70
2022-08-28T22:35:31.429Z,2.80
2022-08-28T22:38:34.291Z,2.00
2022-08-28T22:41:37.767Z,2.40
2022-08-28T22:44:40.987Z,2.80
2022-08-28T22:47:44.529Z,3.00
2022-08-28T22:50:48.524Z,2.70
2022-08-28T22:53:53.138Z,2.20
2022-08-28T22:56:56.421Z,3.20
2022-08-28T23:00:03.176Z,3.20
2022-08-28T23:03:07.073Z,2.90
2022-08-28T23:06:10.196Z,2.40
2022-08-28T23:09:13.223Z,2.60
2022-08-28T23:12:16.298Z,3.30
2022-08-28T23:15:21.686Z,3.30
2022-08-28T23:18:25.308Z,3.00
2022-08-28T23:21:29.393Z,2.60
2022-08-28T23:24:37.411Z,2.70
2022-08-28T23:27:40.468Z,3.10
2022-08-28T23:30:48.285Z,3.10
2022-08-28T23:33:52.961Z,2.80
2022-08-28T23:36:56.070Z,2.30
2022-08-28T23:40:01.914Z,2.60
2022-08-28T23:43:05.055Z,2.80
2022-08-28T23:46:08.661Z,3.30
2022-08-28T23:49:18.063Z,3.80
2022-08-28T23:52:21.335Z,2.90
2022-08-28T23:55:27.090Z,2.50
2022-08-28T23:58:32.856Z,2.60
